Perseverance — V7BS7 — position and weather

sailwx.info

Track history (hours):
 
Tides and Currents Weather Stations Pressure Air Temp Water Temp Dewpoint Dewpoint Depression Visibility Wind Speed Wind Dir Waves Ship Positions

Perseverance

Last reported at 2017-Nov-24 23:30 UTC. Time now 2017-Nov-24 23:46 UTC.
Position N 57°35' E 011°20'.

Length 179 m; draft 6.2 m.

Type: Cargo ship. MMSI: 538005192.

Date/timePositionNaut miles runAvg speedWind from/ knotsBaromVisibWave heightAir tempDewpointWater temp
2017-Nov-24 23:30N 57°35' E 011°20'612.9
2017-Nov-24 23:00N 57°41' E 011°17'612.9
2017-Nov-24 22:30N 57°47' E 011°14'713.0
2017-Nov-24 22:00N 57°54' E 011°11'612.5
2017-Nov-24 21:30N 57°60' E 011°08'611.8
2017-Nov-24 20:59N 58°06' E 011°05'510.9
2017-Nov-24 20:31N 58°10' E 011°02'611.4
2017-Nov-24 19:59N 58°05' E 011°05'612.4
2017-Nov-24 19:30N 57°59' E 011°08'611.1
2017-Nov-24 19:00N 57°54' E 011°11'510.8
2017-Nov-24 18:30N 57°59' E 011°09'611.3
2017-Nov-24 18:00N 58°05' E 011°06'611.2
2017-Nov-24 17:30N 58°10' E 011°03'610.5
2017-Nov-24 16:55N 58°16' E 011°01'510.6
2017-Nov-24 16:28N 58°20' E 010°58'510.7
2017-Nov-24 16:00N 58°25' E 010°56'510.7
2017-Nov-24 15:29N 58°30' E 010°53'510.2
2017-Nov-24 15:00N 58°35' E 010°50'510.6
2017-Nov-24 14:30N 58°40' E 010°47'510.3
2017-Nov-24 14:01N 58°45' E 010°43'510.1
2017-Nov-24 13:30N 58°50' E 010°43'510.1
2017-Nov-24 13:00N 58°55' E 010°43'5 9.7
2017-Nov-24 12:30N 58°60' E 010°44'3 6.6
2017-Nov-24 12:00N 59°02' E 010°49'4 9.0
2017-Nov-24 11:30N 59°01' E 010°57'4 8.6
2017-Nov-24 11:00N 59°05' E 010°58'611.2
2017-Nov-24 10:30N 59°11' E 010°57'1 2.0
2017-Nov-24 09:58N 59°12' E 010°57'0 0.0
2017-Nov-24 09:28N 59°12' E 010°57'0 0.0
2017-Nov-24 08:58N 59°12' E 010°57'0 0.0
2017-Nov-24 08:28N 59°12' E 010°57'0 0.0
2017-Nov-24 07:58N 59°12' E 010°57'0 0.0
2017-Nov-24 07:28N 59°12' E 010°57'0 0.0
2017-Nov-24 06:58N 59°12' E 010°57'0 0.0
2017-Nov-24 06:28N 59°12' E 010°57'0 0.0
2017-Nov-24 05:58N 59°12' E 010°57'0 0.0
2017-Nov-24 05:28N 59°12' E 010°57'0 0.0
2017-Nov-24 04:58N 59°12' E 010°57'0 0.0
2017-Nov-24 04:28N 59°12' E 010°57'0 0.0
2017-Nov-24 03:58N 59°12' E 010°57'0 0.0
2017-Nov-24 03:28N 59°12' E 010°57'0 0.0
2017-Nov-24 02:58N 59°12' E 010°57'0 0.0
2017-Nov-24 02:28N 59°12' E 010°57'0 0.0
2017-Nov-24 01:58N 59°12' E 010°57'0 0.0
2017-Nov-24 01:28N 59°12' E 010°57'0 0.0
2017-Nov-24 00:58N 59°12' E 010°57'0 0.0
2017-Nov-24 00:28N 59°12' E 010°57'0 0.0
2017-Nov-23 23:58N 59°12' E 010°57'0 0.0
2017-Nov-23 23:28N 59°12' E 010°57'0 0.0
2017-Nov-23 22:58N 59°12' E 010°57'0 0.0
2017-Nov-23 22:28N 59°12' E 010°57'0 0.0
2017-Nov-23 21:58N 59°12' E 010°57'0 0.0
2017-Nov-23 21:28N 59°12' E 010°57'0 0.0
2017-Nov-23 20:58N 59°12' E 010°57'0 0.0
2017-Nov-23 20:28N 59°12' E 010°57'0 0.0
2017-Nov-23 19:58N 59°12' E 010°57'0 0.0
2017-Nov-23 19:28N 59°12' E 010°57'0 0.0
2017-Nov-23 18:58N 59°12' E 010°57'0 0.0
2017-Nov-23 18:28N 59°12' E 010°57'0 0.0
2017-Nov-23 17:58N 59°12' E 010°57'0 0.0
2017-Nov-23 17:28N 59°12' E 010°57'0 0.0
2017-Nov-23 16:58N 59°12' E 010°57'0 0.0
2017-Nov-23 16:28N 59°12' E 010°57'0 0.0
2017-Nov-23 15:58N 59°12' E 010°57'0 0.0
2017-Nov-23 15:28N 59°12' E 010°57'0 0.0
2017-Nov-23 14:58N 59°12' E 010°57'0 0.0
2017-Nov-23 14:28N 59°12' E 010°57'0 0.0
2017-Nov-23 13:58N 59°12' E 010°57'0 0.0
2017-Nov-23 13:28N 59°12' E 010°57'0 0.0
2017-Nov-23 12:58N 59°12' E 010°57'0 0.0
2017-Nov-23 12:28N 59°12' E 010°57'0 0.0
2017-Nov-23 11:58N 59°12' E 010°57'0 0.0
2017-Nov-23 11:28N 59°12' E 010°57'0 0.0
2017-Nov-23 10:58N 59°12' E 010°57'0 0.0
2017-Nov-23 10:28N 59°12' E 010°57'0 0.0
2017-Nov-23 09:58N 59°12' E 010°57'0 0.0
2017-Nov-23 09:28N 59°12' E 010°57'0 0.0
2017-Nov-23 08:58N 59°12' E 010°57'0 0.0
2017-Nov-23 08:28N 59°12' E 010°57'0 0.0
2017-Nov-23 07:58N 59°12' E 010°57'0 0.0
2017-Nov-23 07:28N 59°12' E 010°57'0 0.0
2017-Nov-23 06:58N 59°12' E 010°57'0 0.0
2017-Nov-23 06:28N 59°12' E 010°57'0 0.0
2017-Nov-23 05:58N 59°12' E 010°57'0 0.0
2017-Nov-23 05:28N 59°12' E 010°57'0 0.0
2017-Nov-23 04:58N 59°12' E 010°57'0 0.0
2017-Nov-23 04:28N 59°12' E 010°57'0 0.0
2017-Nov-23 03:58N 59°12' E 010°57'0 0.0
2017-Nov-23 03:28N 59°12' E 010°57'0 0.0
2017-Nov-23 02:58N 59°12' E 010°57'0 0.0
2017-Nov-23 02:28N 59°12' E 010°57'0 0.0
2017-Nov-23 01:58N 59°12' E 010°57'0 0.0
2017-Nov-23 01:28N 59°12' E 010°57'0 0.0
2017-Nov-23 00:58N 59°12' E 010°57'0 0.0
2017-Nov-23 00:28N 59°12' E 010°57'0 0.0
2017-Nov-22 23:58N 59°12' E 010°57'0 0.0
2017-Nov-22 23:28N 59°12' E 010°57'0 0.0
2017-Nov-22 22:58N 59°12' E 010°57'0 0.0
2017-Nov-22 22:28N 59°12' E 010°57'0 0.0
2017-Nov-22 21:58N 59°12' E 010°57'0 0.0
2017-Nov-22 21:28N 59°12' E 010°57'0 0.0
2017-Nov-22 20:58N 59°12' E 010°57'0 0.0
2017-Nov-22 20:28N 59°12' E 010°57'0 0.0
2017-Nov-22 19:58N 59°12' E 010°57'0 0.0
2017-Nov-22 19:28N 59°12' E 010°57'  
2017-Nov-20 00:28N 59°12' E 010°57'0 0.0
2017-Nov-19 23:58N 59°12' E 010°57'0 0.0
2017-Nov-19 23:28N 59°12' E 010°57'0 0.0
2017-Nov-19 22:58N 59°12' E 010°57'0 0.0
2017-Nov-19 22:28N 59°12' E 010°57'0 0.0
2017-Nov-19 21:58N 59°12' E 010°57'0 0.0
2017-Nov-19 21:28N 59°12' E 010°57'0 0.0
2017-Nov-19 20:58N 59°12' E 010°57'0 0.0
2017-Nov-19 20:28N 59°12' E 010°57'0 0.0
2017-Nov-19 19:58N 59°12' E 010°57'0 0.0
2017-Nov-19 19:28N 59°12' E 010°57'0 0.0
2017-Nov-19 18:58N 59°12' E 010°57'0 0.0
2017-Nov-19 18:28N 59°12' E 010°57'0 0.0
2017-Nov-19 17:58N 59°12' E 010°57'0 0.0
2017-Nov-19 17:28N 59°12' E 010°57'0 0.0
2017-Nov-19 16:58N 59°12' E 010°57'0 0.0
2017-Nov-19 16:28N 59°12' E 010°57'0 0.0
2017-Nov-19 15:58N 59°12' E 010°57'0 0.0
2017-Nov-19 15:28N 59°12' E 010°57'0 0.0
2017-Nov-19 14:58N 59°12' E 010°57'0 0.0
2017-Nov-19 14:28N 59°12' E 010°57'0 0.0
2017-Nov-19 13:58N 59°12' E 010°57'0 0.0
2017-Nov-19 13:28N 59°12' E 010°57'0 0.0
2017-Nov-19 12:58N 59°12' E 010°57'0 0.0
2017-Nov-19 12:28N 59°12' E 010°57'0 0.0
2017-Nov-19 11:58N 59°12' E 010°57'0 0.0
2017-Nov-19 11:28N 59°12' E 010°57'0 0.0
2017-Nov-19 10:58N 59°12' E 010°57'0 0.0
2017-Nov-19 10:31N 59°12' E 010°57'0 0.1
2017-Nov-19 10:00N 59°11' E 010°57'1 2.9
2017-Nov-19 09:30N 59°10' E 010°57'3 6.0
2017-Nov-19 09:00N 59°07' E 010°58'5 9.3
2017-Nov-19 08:30N 59°02' E 010°58'4 7.0
2017-Nov-19 08:01N 59°01' E 010°52'5 9.9
2017-Nov-19 07:31N 59°00' E 010°42'510.6
2017-Nov-19 07:01N 58°57' E 010°35'510.5
2017-Nov-19 06:31N 58°53' E 010°28'510.4
2017-Nov-19 06:00N 58°49' E 010°21'2 3.9
2017-Nov-19 05:31N 58°47' E 010°19'1 1.7
2017-Nov-19 05:01N 58°48' E 010°20'1 1.6
2017-Nov-19 04:31N 58°48' E 010°21'1 1.5
2017-Nov-19 04:00N 58°49' E 010°22'1 1.4
2017-Nov-19 03:30N 58°50' E 010°23'1 1.5
2017-Nov-19 03:01N 58°50' E 010°24'1 1.4
2017-Nov-19 02:30N 58°51' E 010°24'1 1.5
2017-Nov-19 02:01N 58°51' E 010°25'1 1.4
2017-Nov-19 01:31N 58°52' E 010°26'1 1.5
2017-Nov-19 01:01N 58°52' E 010°28'1 1.3
2017-Nov-19 00:31N 58°53' E 010°28'0 1.0
2017-Nov-19 00:01N 58°53' E 010°29'0 0.8
2017-Nov-18 23:31N 58°53' E 010°30'0 0.8
2017-Nov-18 23:00N 58°54' E 010°30'0 0.4
2017-Nov-18 22:31N 58°54' E 010°30'0 0.1
2017-Nov-18 22:00N 58°54' E 010°30'0 0.5
2017-Nov-18 21:30N 58°54' E 010°30'0 0.6
2017-Nov-18 21:01N 58°54' E 010°29'0 0.7
2017-Nov-18 20:31N 58°53' E 010°29'0 0.8
2017-Nov-18 20:00N 58°53' E 010°29'0 0.8
2017-Nov-18 19:31N 58°53' E 010°28'0 0.7
2017-Nov-18 19:01N 58°52' E 010°28'0 0.7
2017-Nov-18 18:30N 58°52' E 010°27'0 0.5
2017-Nov-18 18:00N 58°52' E 010°27'2 4.2
2017-Nov-18 17:30N 58°50' E 010°24'510.8
2017-Nov-18 17:01N 58°46' E 010°17'612.1
2017-Nov-18 16:30N 58°42' E 010°10'612.2
2017-Nov-18 16:00N 58°37' E 010°02'3912.6
2017-Nov-18 12:55N 58°09' E 009°11'512.4
2017-Nov-18 12:30N 58°05' E 009°05'612.3
2017-Nov-18 12:01N 58°00' E 008°57'612.1
2017-Nov-18 11:30N 57°57' E 008°48'31811.3
2017-Nov-17 07:23N 53°13' E 004°33'411.7
2017-Nov-17 07:00N 53°09' E 004°30'611.8
2017-Nov-17 06:30N 53°04' E 004°25'611.9
2017-Nov-17 06:00N 52°59' E 004°20'612.2
2017-Nov-17 05:30N 52°53' E 004°16'612.2
2017-Nov-17 05:00N 52°48' E 004°11'1112.7
2017-Nov-17 04:10N 52°41' E 003°58'412.9
2017-Nov-17 03:52N 52°38' E 003°54'613.0
2017-Nov-17 03:25N 52°34' E 003°47'8612.6
2017-Nov-16 20:39N 51°30' E 002°14'210.4
2017-Nov-16 20:30N 51°29' E 002°12'510.0
2017-Nov-16 20:00N 51°25' E 002°08'510.3
2017-Nov-16 19:30N 51°20' E 002°06'510.3
2017-Nov-16 19:00N 51°15' E 002°05'5 9.1
2017-Nov-16 18:31N 51°12' E 001°60'510.3
2017-Nov-16 18:00N 51°09' E 001°52'510.4
2017-Nov-16 17:31N 51°06' E 001°46'510.4
2017-Nov-16 17:00N 51°03' E 001°40'510.7
2017-Nov-16 16:31N 50°59' E 001°34'611.1
2017-Nov-16 16:00N 50°54' E 001°28'5611.2
2017-Nov-16 11:01N 50°23' E 000°16'012.1
2017-Nov-16 11:00N 50°23' E 000°15'612.3
2017-Nov-16 10:30N 50°21' E 000°06'712.7
2017-Nov-16 09:59N 50°19' W 000°04'613.0
2017-Nov-16 09:29N 50°18' W 000°14'2514.3
2017-Nov-16 07:45N 50°11' W 000°51'415.4
2017-Nov-16 07:30N 50°10' W 000°57'815.7
2017-Nov-16 07:00N 50°08' W 001°09'815.9
2017-Nov-16 06:31N 50°06' W 001°20'816.0
2017-Nov-16 06:01N 50°04' W 001°33'816.1
2017-Nov-16 05:31N 50°02' W 001°45'815.8
2017-Nov-16 05:01N 50°00' W 001°57'815.1
2017-Nov-16 04:30N 49°58' W 002°08'814.3
2017-Nov-16 03:56N 49°56' W 002°20'1013.5
2017-Nov-16 03:12N 49°53' W 002°35'513.0
2017-Nov-16 02:51N 49°52' W 002°42'912.7
2017-Nov-16 02:07N 49°49' W 002°55'212.3
2017-Nov-16 01:58N 49°48' W 002°58'612.2
2017-Nov-16 01:30N 49°45' W 003°06'612.0
2017-Nov-16 01:00N 49°42' W 003°14'711.9
2017-Nov-16 00:27N 49°39' W 003°23'511.9
2017-Nov-16 00:00N 49°36' W 003°29'611.7
2017-Nov-15 23:30N 49°32' W 003°37'711.6
2017-Nov-15 22:56N 49°29' W 003°45'511.3
2017-Nov-15 22:31N 49°26' W 003°51'1611.2
2017-Nov-15 21:05N 49°19' W 004°13'110.8
2017-Nov-15 20:59N 49°19' W 004°15'511.1
2017-Nov-15 20:30N 49°16' W 004°22'611.1
2017-Nov-15 20:00N 49°13' W 004°29'711.2
2017-Nov-15 19:24N 49°10' W 004°38'511.3
2017-Nov-15 18:56N 49°07' W 004°45'511.4
2017-Nov-15 18:29N 49°05' W 004°52'511.6
2017-Nov-15 18:01N 49°02' W 004°59'611.8
2017-Nov-15 17:30N 48°58' W 005°06'612.1
2017-Nov-15 17:00N 48°55' W 005°14'612.3
2017-Nov-15 16:30N 48°52' W 005°22'611.6
2017-Nov-15 16:01N 48°49' W 005°30'611.6
2017-Nov-15 15:29N 48°45' W 005°37'613.1
2017-Nov-15 14:59N 48°39' W 005°41'713.2
2017-Nov-15 14:28N 48°33' W 005°46'713.3
2017-Nov-15 13:57N 48°27' W 005°51'713.5
2017-Nov-15 13:28N 48°21' W 005°56'713.5
2017-Nov-15 12:55N 48°15' W 006°01'613.6
2017-Nov-15 12:30N 48°10' W 006°04'713.6
2017-Nov-15 12:00N 48°04' W 006°09'713.7
2017-Nov-15 11:30N 47°58' W 006°14'713.3
2017-Nov-15 10:58N 47°51' W 006°19'613.3
2017-Nov-15 10:29N 47°46' W 006°23'713.3
2017-Nov-15 09:57N 47°39' W 006°27'712.7
2017-Nov-15 09:23N 47°33' W 006°32'512.3
2017-Nov-15 08:59N 47°29' W 006°37'1812.3
2017-Nov-15 07:31N 47°13' W 006°49'012.8
2017-Nov-15 07:30N 47°13' W 006°49'812.5
2017-Nov-15 06:50N 47°06' W 006°55'412.3
2017-Nov-15 06:29N 47°02' W 006°58'  
Track history (hours):
 
Tides and Currents Weather Stations Pressure Air Temp Water Temp Dewpoint Dewpoint Depression Visibility Wind Speed Wind Dir Waves Ship Positions

Perseverance

Last reported at 2017-Nov-24 23:30 UTC. Time now 2017-Nov-24 23:46 UTC.
Position N 57°35' E 011°20'.

Length 179 m; draft 6.2 m.

Type: Cargo ship. MMSI: 538005192.

Date/timePositionNaut miles runAvg speedWind from/ knotsBaromVisibWave heightAir tempDewpointWater temp
2017-Nov-24 23:30N 57°35' E 011°20'612.9
2017-Nov-24 23:00N 57°41' E 011°17'612.9
2017-Nov-24 22:30N 57°47' E 011°14'713.0
2017-Nov-24 22:00N 57°54' E 011°11'612.5
2017-Nov-24 21:30N 57°60' E 011°08'611.8
2017-Nov-24 20:59N 58°06' E 011°05'510.9
2017-Nov-24 20:31N 58°10' E 011°02'611.4
2017-Nov-24 19:59N 58°05' E 011°05'612.4
2017-Nov-24 19:30N 57°59' E 011°08'611.1
2017-Nov-24 19:00N 57°54' E 011°11'510.8
2017-Nov-24 18:30N 57°59' E 011°09'611.3
2017-Nov-24 18:00N 58°05' E 011°06'611.2
2017-Nov-24 17:30N 58°10' E 011°03'610.5
2017-Nov-24 16:55N 58°16' E 011°01'510.6
2017-Nov-24 16:28N 58°20' E 010°58'510.7
2017-Nov-24 16:00N 58°25' E 010°56'510.7
2017-Nov-24 15:29N 58°30' E 010°53'510.2
2017-Nov-24 15:00N 58°35' E 010°50'510.6
2017-Nov-24 14:30N 58°40' E 010°47'510.3
2017-Nov-24 14:01N 58°45' E 010°43'510.1
2017-Nov-24 13:30N 58°50' E 010°43'510.1
2017-Nov-24 13:00N 58°55' E 010°43'5 9.7
2017-Nov-24 12:30N 58°60' E 010°44'3 6.6
2017-Nov-24 12:00N 59°02' E 010°49'4 9.0
2017-Nov-24 11:30N 59°01' E 010°57'4 8.6
2017-Nov-24 11:00N 59°05' E 010°58'611.2
2017-Nov-24 10:30N 59°11' E 010°57'1 2.0
2017-Nov-24 09:58N 59°12' E 010°57'0 0.0
2017-Nov-24 09:28N 59°12' E 010°57'0 0.0
2017-Nov-24 08:58N 59°12' E 010°57'0 0.0
2017-Nov-24 08:28N 59°12' E 010°57'0 0.0
2017-Nov-24 07:58N 59°12' E 010°57'0 0.0
2017-Nov-24 07:28N 59°12' E 010°57'0 0.0
2017-Nov-24 06:58N 59°12' E 010°57'0 0.0
2017-Nov-24 06:28N 59°12' E 010°57'0 0.0
2017-Nov-24 05:58N 59°12' E 010°57'0 0.0
2017-Nov-24 05:28N 59°12' E 010°57'0 0.0
2017-Nov-24 04:58N 59°12' E 010°57'0 0.0
2017-Nov-24 04:28N 59°12' E 010°57'0 0.0
2017-Nov-24 03:58N 59°12' E 010°57'0 0.0
2017-Nov-24 03:28N 59°12' E 010°57'0 0.0
2017-Nov-24 02:58N 59°12' E 010°57'0 0.0
2017-Nov-24 02:28N 59°12' E 010°57'0 0.0
2017-Nov-24 01:58N 59°12' E 010°57'0 0.0
2017-Nov-24 01:28N 59°12' E 010°57'0 0.0
2017-Nov-24 00:58N 59°12' E 010°57'0 0.0
2017-Nov-24 00:28N 59°12' E 010°57'0 0.0
2017-Nov-23 23:58N 59°12' E 010°57'0 0.0
2017-Nov-23 23:28N 59°12' E 010°57'0 0.0
2017-Nov-23 22:58N 59°12' E 010°57'0 0.0
2017-Nov-23 22:28N 59°12' E 010°57'0 0.0
2017-Nov-23 21:58N 59°12' E 010°57'0 0.0
2017-Nov-23 21:28N 59°12' E 010°57'0 0.0
2017-Nov-23 20:58N 59°12' E 010°57'0 0.0
2017-Nov-23 20:28N 59°12' E 010°57'0 0.0
2017-Nov-23 19:58N 59°12' E 010°57'0 0.0
2017-Nov-23 19:28N 59°12' E 010°57'0 0.0
2017-Nov-23 18:58N 59°12' E 010°57'0 0.0
2017-Nov-23 18:28N 59°12' E 010°57'0 0.0
2017-Nov-23 17:58N 59°12' E 010°57'0 0.0
2017-Nov-23 17:28N 59°12' E 010°57'0 0.0
2017-Nov-23 16:58N 59°12' E 010°57'0 0.0
2017-Nov-23 16:28N 59°12' E 010°57'0 0.0
2017-Nov-23 15:58N 59°12' E 010°57'0 0.0
2017-Nov-23 15:28N 59°12' E 010°57'0 0.0
2017-Nov-23 14:58N 59°12' E 010°57'0 0.0
2017-Nov-23 14:28N 59°12' E 010°57'0 0.0
2017-Nov-23 13:58N 59°12' E 010°57'0 0.0
2017-Nov-23 13:28N 59°12' E 010°57'0 0.0
2017-Nov-23 12:58N 59°12' E 010°57'0 0.0
2017-Nov-23 12:28N 59°12' E 010°57'0 0.0
2017-Nov-23 11:58N 59°12' E 010°57'0 0.0
2017-Nov-23 11:28N 59°12' E 010°57'0 0.0
2017-Nov-23 10:58N 59°12' E 010°57'0 0.0
2017-Nov-23 10:28N 59°12' E 010°57'0 0.0
2017-Nov-23 09:58N 59°12' E 010°57'0 0.0
2017-Nov-23 09:28N 59°12' E 010°57'0 0.0
2017-Nov-23 08:58N 59°12' E 010°57'0 0.0
2017-Nov-23 08:28N 59°12' E 010°57'0 0.0
2017-Nov-23 07:58N 59°12' E 010°57'0 0.0
2017-Nov-23 07:28N 59°12' E 010°57'0 0.0
2017-Nov-23 06:58N 59°12' E 010°57'0 0.0
2017-Nov-23 06:28N 59°12' E 010°57'0 0.0
2017-Nov-23 05:58N 59°12' E 010°57'0 0.0
2017-Nov-23 05:28N 59°12' E 010°57'0 0.0
2017-Nov-23 04:58N 59°12' E 010°57'0 0.0
2017-Nov-23 04:28N 59°12' E 010°57'0 0.0
2017-Nov-23 03:58N 59°12' E 010°57'0 0.0
2017-Nov-23 03:28N 59°12' E 010°57'0 0.0
2017-Nov-23 02:58N 59°12' E 010°57'0 0.0
2017-Nov-23 02:28N 59°12' E 010°57'0 0.0
2017-Nov-23 01:58N 59°12' E 010°57'0 0.0
2017-Nov-23 01:28N 59°12' E 010°57'0 0.0
2017-Nov-23 00:58N 59°12' E 010°57'0 0.0
2017-Nov-23 00:28N 59°12' E 010°57'0 0.0
2017-Nov-22 23:58N 59°12' E 010°57'0 0.0
2017-Nov-22 23:28N 59°12' E 010°57'0 0.0
2017-Nov-22 22:58N 59°12' E 010°57'0 0.0
2017-Nov-22 22:28N 59°12' E 010°57'0 0.0
2017-Nov-22 21:58N 59°12' E 010°57'0 0.0
2017-Nov-22 21:28N 59°12' E 010°57'0 0.0
2017-Nov-22 20:58N 59°12' E 010°57'0 0.0
2017-Nov-22 20:28N 59°12' E 010°57'0 0.0
2017-Nov-22 19:58N 59°12' E 010°57'0 0.0
2017-Nov-22 19:28N 59°12' E 010°57'  
2017-Nov-20 00:28N 59°12' E 010°57'0 0.0
2017-Nov-19 23:58N 59°12' E 010°57'0 0.0
2017-Nov-19 23:28N 59°12' E 010°57'0 0.0
2017-Nov-19 22:58N 59°12' E 010°57'0 0.0
2017-Nov-19 22:28N 59°12' E 010°57'0 0.0
2017-Nov-19 21:58N 59°12' E 010°57'0 0.0
2017-Nov-19 21:28N 59°12' E 010°57'0 0.0
2017-Nov-19 20:58N 59°12' E 010°57'0 0.0
2017-Nov-19 20:28N 59°12' E 010°57'0 0.0
2017-Nov-19 19:58N 59°12' E 010°57'0 0.0
2017-Nov-19 19:28N 59°12' E 010°57'0 0.0
2017-Nov-19 18:58N 59°12' E 010°57'0 0.0
2017-Nov-19 18:28N 59°12' E 010°57'0 0.0
2017-Nov-19 17:58N 59°12' E 010°57'0 0.0
2017-Nov-19 17:28N 59°12' E 010°57'0 0.0
2017-Nov-19 16:58N 59°12' E 010°57'0 0.0
2017-Nov-19 16:28N 59°12' E 010°57'0 0.0
2017-Nov-19 15:58N 59°12' E 010°57'0 0.0
2017-Nov-19 15:28N 59°12' E 010°57'0 0.0
2017-Nov-19 14:58N 59°12' E 010°57'0 0.0
2017-Nov-19 14:28N 59°12' E 010°57'0 0.0
2017-Nov-19 13:58N 59°12' E 010°57'0 0.0
2017-Nov-19 13:28N 59°12' E 010°57'0 0.0
2017-Nov-19 12:58N 59°12' E 010°57'0 0.0
2017-Nov-19 12:28N 59°12' E 010°57'0 0.0
2017-Nov-19 11:58N 59°12' E 010°57'0 0.0
2017-Nov-19 11:28N 59°12' E 010°57'0 0.0
2017-Nov-19 10:58N 59°12' E 010°57'0 0.0
2017-Nov-19 10:31N 59°12' E 010°57'0 0.1
2017-Nov-19 10:00N 59°11' E 010°57'1 2.9
2017-Nov-19 09:30N 59°10' E 010°57'3 6.0
2017-Nov-19 09:00N 59°07' E 010°58'5 9.3
2017-Nov-19 08:30N 59°02' E 010°58'4 7.0
2017-Nov-19 08:01N 59°01' E 010°52'5 9.9
2017-Nov-19 07:31N 59°00' E 010°42'510.6
2017-Nov-19 07:01N 58°57' E 010°35'510.5
2017-Nov-19 06:31N 58°53' E 010°28'510.4
2017-Nov-19 06:00N 58°49' E 010°21'2 3.9
2017-Nov-19 05:31N 58°47' E 010°19'1 1.7
2017-Nov-19 05:01N 58°48' E 010°20'1 1.6
2017-Nov-19 04:31N 58°48' E 010°21'1 1.5
2017-Nov-19 04:00N 58°49' E 010°22'1 1.4
2017-Nov-19 03:30N 58°50' E 010°23'1 1.5
2017-Nov-19 03:01N 58°50' E 010°24'1 1.4
2017-Nov-19 02:30N 58°51' E 010°24'1 1.5
2017-Nov-19 02:01N 58°51' E 010°25'1 1.4
2017-Nov-19 01:31N 58°52' E 010°26'1 1.5
2017-Nov-19 01:01N 58°52' E 010°28'1 1.3
2017-Nov-19 00:31N 58°53' E 010°28'0 1.0
2017-Nov-19 00:01N 58°53' E 010°29'0 0.8
2017-Nov-18 23:31N 58°53' E 010°30'0 0.8
2017-Nov-18 23:00N 58°54' E 010°30'0 0.4
2017-Nov-18 22:31N 58°54' E 010°30'0 0.1
2017-Nov-18 22:00N 58°54' E 010°30'0 0.5
2017-Nov-18 21:30N 58°54' E 010°30'0 0.6
2017-Nov-18 21:01N 58°54' E 010°29'0 0.7
2017-Nov-18 20:31N 58°53' E 010°29'0 0.8
2017-Nov-18 20:00N 58°53' E 010°29'0 0.8
2017-Nov-18 19:31N 58°53' E 010°28'0 0.7
2017-Nov-18 19:01N 58°52' E 010°28'0 0.7
2017-Nov-18 18:30N 58°52' E 010°27'0 0.5
2017-Nov-18 18:00N 58°52' E 010°27'2 4.2
2017-Nov-18 17:30N 58°50' E 010°24'510.8
2017-Nov-18 17:01N 58°46' E 010°17'612.1
2017-Nov-18 16:30N 58°42' E 010°10'612.2
2017-Nov-18 16:00N 58°37' E 010°02'3912.6
2017-Nov-18 12:55N 58°09' E 009°11'512.4
2017-Nov-18 12:30N 58°05' E 009°05'612.3
2017-Nov-18 12:01N 58°00' E 008°57'612.1
2017-Nov-18 11:30N 57°57' E 008°48'31811.3
2017-Nov-17 07:23N 53°13' E 004°33'411.7
2017-Nov-17 07:00N 53°09' E 004°30'611.8
2017-Nov-17 06:30N 53°04' E 004°25'611.9
2017-Nov-17 06:00N 52°59' E 004°20'612.2
2017-Nov-17 05:30N 52°53' E 004°16'612.2
2017-Nov-17 05:00N 52°48' E 004°11'1112.7
2017-Nov-17 04:10N 52°41' E 003°58'412.9
2017-Nov-17 03:52N 52°38' E 003°54'613.0
2017-Nov-17 03:25N 52°34' E 003°47'8612.6
2017-Nov-16 20:39N 51°30' E 002°14'210.4
2017-Nov-16 20:30N 51°29' E 002°12'510.0
2017-Nov-16 20:00N 51°25' E 002°08'510.3
2017-Nov-16 19:30N 51°20' E 002°06'510.3
2017-Nov-16 19:00N 51°15' E 002°05'5 9.1
2017-Nov-16 18:31N 51°12' E 001°60'510.3
2017-Nov-16 18:00N 51°09' E 001°52'510.4
2017-Nov-16 17:31N 51°06' E 001°46'510.4
2017-Nov-16 17:00N 51°03' E 001°40'510.7
2017-Nov-16 16:31N 50°59' E 001°34'611.1
2017-Nov-16 16:00N 50°54' E 001°28'5611.2
2017-Nov-16 11:01N 50°23' E 000°16'012.1
2017-Nov-16 11:00N 50°23' E 000°15'612.3
2017-Nov-16 10:30N 50°21' E 000°06'712.7
2017-Nov-16 09:59N 50°19' W 000°04'613.0
2017-Nov-16 09:29N 50°18' W 000°14'2514.3
2017-Nov-16 07:45N 50°11' W 000°51'415.4
2017-Nov-16 07:30N 50°10' W 000°57'815.7
2017-Nov-16 07:00N 50°08' W 001°09'815.9
2017-Nov-16 06:31N 50°06' W 001°20'816.0
2017-Nov-16 06:01N 50°04' W 001°33'816.1
2017-Nov-16 05:31N 50°02' W 001°45'815.8
2017-Nov-16 05:01N 50°00' W 001°57'815.1
2017-Nov-16 04:30N 49°58' W 002°08'814.3
2017-Nov-16 03:56N 49°56' W 002°20'1013.5
2017-Nov-16 03:12N 49°53' W 002°35'513.0
2017-Nov-16 02:51N 49°52' W 002°42'912.7
2017-Nov-16 02:07N 49°49' W 002°55'212.3
2017-Nov-16 01:58N 49°48' W 002°58'612.2
2017-Nov-16 01:30N 49°45' W 003°06'612.0
2017-Nov-16 01:00N 49°42' W 003°14'711.9
2017-Nov-16 00:27N 49°39' W 003°23'511.9
2017-Nov-16 00:00N 49°36' W 003°29'611.7
2017-Nov-15 23:30N 49°32' W 003°37'711.6
2017-Nov-15 22:56N 49°29' W 003°45'511.3
2017-Nov-15 22:31N 49°26' W 003°51'1611.2
2017-Nov-15 21:05N 49°19' W 004°13'110.8
2017-Nov-15 20:59N 49°19' W 004°15'511.1
2017-Nov-15 20:30N 49°16' W 004°22'611.1
2017-Nov-15 20:00N 49°13' W 004°29'711.2
2017-Nov-15 19:24N 49°10' W 004°38'511.3
2017-Nov-15 18:56N 49°07' W 004°45'511.4
2017-Nov-15 18:29N 49°05' W 004°52'511.6
2017-Nov-15 18:01N 49°02' W 004°59'611.8
2017-Nov-15 17:30N 48°58' W 005°06'612.1
2017-Nov-15 17:00N 48°55' W 005°14'612.3
2017-Nov-15 16:30N 48°52' W 005°22'611.6
2017-Nov-15 16:01N 48°49' W 005°30'611.6
2017-Nov-15 15:29N 48°45' W 005°37'613.1
2017-Nov-15 14:59N 48°39' W 005°41'713.2
2017-Nov-15 14:28N 48°33' W 005°46'713.3
2017-Nov-15 13:57N 48°27' W 005°51'713.5
2017-Nov-15 13:28N 48°21' W 005°56'713.5
2017-Nov-15 12:55N 48°15' W 006°01'613.6
2017-Nov-15 12:30N 48°10' W 006°04'713.6
2017-Nov-15 12:00N 48°04' W 006°09'713.7
2017-Nov-15 11:30N 47°58' W 006°14'713.3
2017-Nov-15 10:58N 47°51' W 006°19'613.3
2017-Nov-15 10:29N 47°46' W 006°23'713.3
2017-Nov-15 09:57N 47°39' W 006°27'712.7
2017-Nov-15 09:23N 47°33' W 006°32'512.3
2017-Nov-15 08:59N 47°29' W 006°37'1812.3
2017-Nov-15 07:31N 47°13' W 006°49'012.8
2017-Nov-15 07:30N 47°13' W 006°49'812.5
2017-Nov-15 06:50N 47°06' W 006°55'412.3
2017-Nov-15 06:29N 47°02' W 006°58'  

Dump ship's entire track history